sensor_id;sensor_type;location;lat;lon;timestamp;P1;durP1;ratioP1;P2;durP2;ratioP2
5199;SDS011;2619;47.868;11.892;2023-11-19T00:01:47;7.57;;;5.60;;
5199;SDS011;2619;47.868;11.892;2023-11-19T00:04:12;8.17;;;6.90;;
5199;SDS011;2619;47.868;11.892;2023-11-19T00:06:38;8.13;;;6.47;;
5199;SDS011;2619;47.868;11.892;2023-11-19T00:09:04;8.30;;;5.87;;
5199;SDS011;2619;47.868;11.892;2023-11-19T00:11:30;7.33;;;5.60;;
5199;SDS011;2619;47.868;11.892;2023-11-19T00:13:55;8.83;;;6.50;;
5199;SDS011;2619;47.868;11.892;2023-11-19T00:16:21;9.50;;;6.77;;
5199;SDS011;2619;47.868;11.892;2023-11-19T00:18:46;8.20;;;6.43;;
5199;SDS011;2619;47.868;11.892;2023-11-19T00:21:12;7.90;;;6.53;;
5199;SDS011;2619;47.868;11.892;2023-11-19T00:23:37;8.90;;;6.10;;
5199;SDS011;2619;47.868;11.892;2023-11-19T00:26:03;7.67;;;5.87;;
5199;SDS011;2619;47.868;11.892;2023-11-19T00:28:31;9.47;;;6.73;;
5199;SDS011;2619;47.868;11.892;2023-11-19T00:30:58;9.50;;;6.60;;
5199;SDS011;2619;47.868;11.892;2023-11-19T00:33:23;7.90;;;6.10;;
5199;SDS011;2619;47.868;11.892;2023-11-19T00:35:49;8.27;;;5.53;;
5199;SDS011;2619;47.868;11.892;2023-11-19T00:38:15;7.50;;;5.63;;
5199;SDS011;2619;47.868;11.892;2023-11-19T00:40:41;9.47;;;7.17;;
5199;SDS011;2619;47.868;11.892;2023-11-19T00:43:06;9.53;;;6.80;;
5199;SDS011;2619;47.868;11.892;2023-11-19T00:45:32;9.07;;;6.40;;
5199;SDS011;2619;47.868;11.892;2023-11-19T00:47:58;7.80;;;5.90;;
5199;SDS011;2619;47.868;11.892;2023-11-19T00:50:27;12.57;;;7.73;;
5199;SDS011;2619;47.868;11.892;2023-11-19T00:52:52;11.50;;;8.13;;
5199;SDS011;2619;47.868;11.892;2023-11-19T00:55:18;12.27;;;8.27;;
5199;SDS011;2619;47.868;11.892;2023-11-19T00:57:43;10.83;;;8.27;;
5199;SDS011;2619;47.868;11.892;2023-11-19T01:00:09;11.10;;;8.10;;
5199;SDS011;2619;47.868;11.892;2023-11-19T01:02:47;9.57;;;7.03;;
5199;SDS011;2619;47.868;11.892;2023-11-19T01:05:14;9.20;;;7.00;;
5199;SDS011;2619;47.868;11.892;2023-11-19T01:07:40;10.50;;;7.20;;
5199;SDS011;2619;47.868;11.892;2023-11-19T01:10:05;9.43;;;7.13;;
5199;SDS011;2619;47.868;11.892;2023-11-19T01:12:33;11.60;;;7.60;;
5199;SDS011;2619;47.868;11.892;2023-11-19T01:14:59;13.00;;;8.77;;
5199;SDS011;2619;47.868;11.892;2023-11-19T01:17:26;12.10;;;8.80;;
5199;SDS011;2619;47.868;11.892;2023-11-19T01:19:51;12.00;;;8.47;;
5199;SDS011;2619;47.868;11.892;2023-11-19T01:22:17;12.70;;;8.47;;
5199;SDS011;2619;47.868;11.892;2023-11-19T01:24:43;11.97;;;8.57;;
5199;SDS011;2619;47.868;11.892;2023-11-19T01:27:09;12.77;;;8.87;;
5199;SDS011;2619;47.868;11.892;2023-11-19T01:29:35;12.40;;;9.00;;
5199;SDS011;2619;47.868;11.892;2023-11-19T01:32:00;11.87;;;8.43;;
5199;SDS011;2619;47.868;11.892;2023-11-19T01:34:26;13.53;;;9.37;;
5199;SDS011;2619;47.868;11.892;2023-11-19T01:36:51;12.90;;;8.70;;
5199;SDS011;2619;47.868;11.892;2023-11-19T01:39:17;12.47;;;8.00;;
5199;SDS011;2619;47.868;11.892;2023-11-19T01:41:42;11.40;;;8.30;;
5199;SDS011;2619;47.868;11.892;2023-11-19T01:44:08;10.77;;;7.93;;
5199;SDS011;2619;47.868;11.892;2023-11-19T01:46:34;11.57;;;7.73;;
5199;SDS011;2619;47.868;11.892;2023-11-19T01:49:00;11.03;;;7.80;;
5199;SDS011;2619;47.868;11.892;2023-11-19T01:51:27;10.67;;;7.40;;
5199;SDS011;2619;47.868;11.892;2023-11-19T01:53:53;9.97;;;7.23;;
5199;SDS011;2619;47.868;11.892;2023-11-19T01:56:21;13.07;;;8.67;;
5199;SDS011;2619;47.868;11.892;2023-11-19T01:58:47;10.57;;;7.67;;
5199;SDS011;2619;47.868;11.892;2023-11-19T02:01:14;10.17;;;8.07;;
5199;SDS011;2619;47.868;11.892;2023-11-19T02:03:40;10.60;;;7.30;;
5199;SDS011;2619;47.868;11.892;2023-11-19T02:06:07;11.70;;;7.43;;
5199;SDS011;2619;47.868;11.892;2023-11-19T02:08:35;11.07;;;7.90;;
5199;SDS011;2619;47.868;11.892;2023-11-19T02:11:00;9.83;;;7.00;;
5199;SDS011;2619;47.868;11.892;2023-11-19T02:13:27;11.60;;;7.80;;
5199;SDS011;2619;47.868;11.892;2023-11-19T02:15:53;11.13;;;7.67;;
5199;SDS011;2619;47.868;11.892;2023-11-19T02:18:24;12.03;;;8.03;;
5199;SDS011;2619;47.868;11.892;2023-11-19T02:20:52;11.97;;;8.10;;
5199;SDS011;2619;47.868;11.892;2023-11-19T02:23:28;14.13;;;8.77;;
5199;SDS011;2619;47.868;11.892;2023-11-19T02:28:42;12.60;;;8.20;;
5199;SDS011;2619;47.868;11.892;2023-11-19T02:31:08;13.60;;;9.57;;
5199;SDS011;2619;47.868;11.892;2023-11-19T02:33:34;9.50;;;7.40;;
5199;SDS011;2619;47.868;11.892;2023-11-19T02:36:07;10.90;;;7.67;;
5199;SDS011;2619;47.868;11.892;2023-11-19T02:38:33;13.13;;;9.20;;
5199;SDS011;2619;47.868;11.892;2023-11-19T02:41:02;11.60;;;8.27;;
5199;SDS011;2619;47.868;11.892;2023-11-19T02:43:30;13.43;;;8.80;;
5199;SDS011;2619;47.868;11.892;2023-11-19T02:45:58;10.53;;;7.17;;
5199;SDS011;2619;47.868;11.892;2023-11-19T02:48:27;12.20;;;7.83;;
5199;SDS011;2619;47.868;11.892;2023-11-19T02:50:52;11.70;;;7.80;;
5199;SDS011;2619;47.868;11.892;2023-11-19T02:53:18;14.63;;;8.50;;
5199;SDS011;2619;47.868;11.892;2023-11-19T02:55:46;12.77;;;8.13;;
5199;SDS011;2619;47.868;11.892;2023-11-19T02:58:14;11.97;;;7.70;;
5199;SDS011;2619;47.868;11.892;2023-11-19T03:00:48;14.80;;;8.87;;
5199;SDS011;2619;47.868;11.892;2023-11-19T03:03:22;12.53;;;8.30;;
5199;SDS011;2619;47.868;11.892;2023-11-19T03:05:53;12.17;;;8.13;;
5199;SDS011;2619;47.868;11.892;2023-11-19T03:08:20;13.93;;;8.70;;
5199;SDS011;2619;47.868;11.892;2023-11-19T03:10:45;14.90;;;8.83;;
5199;SDS011;2619;47.868;11.892;2023-11-19T03:13:11;13.37;;;8.27;;
5199;SDS011;2619;47.868;11.892;2023-11-19T03:15:44;14.00;;;9.13;;
5199;SDS011;2619;47.868;11.892;2023-11-19T03:18:10;14.20;;;8.60;;
5199;SDS011;2619;47.868;11.892;2023-11-19T03:20:36;13.13;;;8.30;;
5199;SDS011;2619;47.868;11.892;2023-11-19T03:23:02;13.23;;;8.60;;
5199;SDS011;2619;47.868;11.892;2023-11-19T03:25:27;12.23;;;8.43;;
5199;SDS011;2619;47.868;11.892;2023-11-19T03:27:58;14.07;;;8.83;;
5199;SDS011;2619;47.868;11.892;2023-11-19T03:30:24;13.63;;;8.60;;
5199;SDS011;2619;47.868;11.892;2023-11-19T03:32:50;14.23;;;9.50;;
5199;SDS011;2619;47.868;11.892;2023-11-19T03:35:15;15.67;;;9.40;;
5199;SDS011;2619;47.868;11.892;2023-11-19T03:37:41;12.80;;;8.73;;
5199;SDS011;2619;47.868;11.892;2023-11-19T03:40:08;12.70;;;8.50;;
5199;SDS011;2619;47.868;11.892;2023-11-19T03:42:35;17.03;;;10.30;;
5199;SDS011;2619;47.868;11.892;2023-11-19T03:45:00;16.50;;;9.50;;
5199;SDS011;2619;47.868;11.892;2023-11-19T03:47:28;15.20;;;9.10;;
5199;SDS011;2619;47.868;11.892;2023-11-19T03:49:54;14.53;;;9.57;;
5199;SDS011;2619;47.868;11.892;2023-11-19T03:52:19;14.87;;;9.40;;
5199;SDS011;2619;47.868;11.892;2023-11-19T03:54:45;14.47;;;8.80;;
5199;SDS011;2619;47.868;11.892;2023-11-19T03:57:11;15.90;;;9.30;;
5199;SDS011;2619;47.868;11.892;2023-11-19T03:59:40;14.33;;;9.17;;
5199;SDS011;2619;47.868;11.892;2023-11-19T04:02:06;14.73;;;9.33;;
5199;SDS011;2619;47.868;11.892;2023-11-19T04:04:32;15.20;;;9.90;;
5199;SDS011;2619;47.868;11.892;2023-11-19T04:06:58;17.20;;;11.47;;
5199;SDS011;2619;47.868;11.892;2023-11-19T04:09:25;17.57;;;11.23;;
5199;SDS011;2619;47.868;11.892;2023-11-19T04:11:51;19.00;;;13.10;;
5199;SDS011;2619;47.868;11.892;2023-11-19T04:14:16;20.50;;;13.33;;
5199;SDS011;2619;47.868;11.892;2023-11-19T04:16:43;19.00;;;13.10;;
5199;SDS011;2619;47.868;11.892;2023-11-19T04:19:10;18.10;;;12.00;;
5199;SDS011;2619;47.868;11.892;2023-11-19T04:21:36;22.03;;;14.10;;
5199;SDS011;2619;47.868;11.892;2023-11-19T04:24:02;23.73;;;14.10;;
5199;SDS011;2619;47.868;11.892;2023-11-19T04:26:28;24.90;;;15.43;;
5199;SDS011;2619;47.868;11.892;2023-11-19T04:28:53;24.70;;;15.57;;
5199;SDS011;2619;47.868;11.892;2023-11-19T04:31:19;22.17;;;14.17;;
5199;SDS011;2619;47.868;11.892;2023-11-19T04:33:44;22.53;;;13.80;;
5199;SDS011;2619;47.868;11.892;2023-11-19T04:36:10;23.77;;;15.23;;
5199;SDS011;2619;47.868;11.892;2023-11-19T04:38:36;20.10;;;13.27;;
5199;SDS011;2619;47.868;11.892;2023-11-19T04:41:03;23.60;;;14.40;;
5199;SDS011;2619;47.868;11.892;2023-11-19T04:43:30;20.87;;;13.40;;
5199;SDS011;2619;47.868;11.892;2023-11-19T04:45:56;20.10;;;12.50;;
5199;SDS011;2619;47.868;11.892;2023-11-19T04:48:22;19.20;;;12.77;;
5199;SDS011;2619;47.868;11.892;2023-11-19T04:50:48;15.33;;;9.17;;
5199;SDS011;2619;47.868;11.892;2023-11-19T04:53:16;14.73;;;9.13;;
5199;SDS011;2619;47.868;11.892;2023-11-19T04:55:42;16.90;;;10.03;;
5199;SDS011;2619;47.868;11.892;2023-11-19T04:58:07;16.10;;;10.20;;
5199;SDS011;2619;47.868;11.892;2023-11-19T05:00:34;14.47;;;9.63;;
5199;SDS011;2619;47.868;11.892;2023-11-19T05:02:59;17.00;;;11.33;;
5199;SDS011;2619;47.868;11.892;2023-11-19T05:05:25;16.33;;;10.90;;
5199;SDS011;2619;47.868;11.892;2023-11-19T05:07:50;14.80;;;9.87;;
5199;SDS011;2619;47.868;11.892;2023-11-19T05:10:16;18.30;;;11.90;;
5199;SDS011;2619;47.868;11.892;2023-11-19T05:12:42;14.70;;;10.37;;
5199;SDS011;2619;47.868;11.892;2023-11-19T05:15:07;15.53;;;10.17;;
5199;SDS011;2619;47.868;11.892;2023-11-19T05:17:33;17.23;;;11.43;;
5199;SDS011;2619;47.868;11.892;2023-11-19T05:19:59;17.80;;;10.90;;
5199;SDS011;2619;47.868;11.892;2023-11-19T05:22:24;6.73;;;4.80;;
5199;SDS011;2619;47.868;11.892;2023-11-19T05:24:51;2.97;;;1.03;;
5199;SDS011;2619;47.868;11.892;2023-11-19T05:27:17;3.73;;;1.33;;
5199;SDS011;2619;47.868;11.892;2023-11-19T05:29:42;2.70;;;1.20;;
5199;SDS011;2619;47.868;11.892;2023-11-19T05:32:09;3.77;;;1.40;;
5199;SDS011;2619;47.868;11.892;2023-11-19T05:34:35;3.13;;;1.50;;
5199;SDS011;2619;47.868;11.892;2023-11-19T05:37:00;2.40;;;1.27;;
5199;SDS011;2619;47.868;11.892;2023-11-19T05:39:27;2.63;;;1.40;;
5199;SDS011;2619;47.868;11.892;2023-11-19T05:41:53;3.03;;;1.00;;
5199;SDS011;2619;47.868;11.892;2023-11-19T05:44:19;2.60;;;1.10;;
5199;SDS011;2619;47.868;11.892;2023-11-19T05:46:44;4.93;;;1.40;;
5199;SDS011;2619;47.868;11.892;2023-11-19T05:49:11;3.73;;;1.70;;
5199;SDS011;2619;47.868;11.892;2023-11-19T05:51:40;5.03;;;2.60;;
5199;SDS011;2619;47.868;11.892;2023-11-19T05:54:06;12.97;;;8.77;;
5199;SDS011;2619;47.868;11.892;2023-11-19T05:56:33;2.70;;;0.87;;
5199;SDS011;2619;47.868;11.892;2023-11-19T05:58:59;2.20;;;0.70;;
5199;SDS011;2619;47.868;11.892;2023-11-19T06:01:26;2.70;;;1.00;;
5199;SDS011;2619;47.868;11.892;2023-11-19T06:03:51;2.40;;;0.80;;
5199;SDS011;2619;47.868;11.892;2023-11-19T06:06:17;2.30;;;0.70;;
5199;SDS011;2619;47.868;11.892;2023-11-19T06:08:43;3.60;;;1.23;;
5199;SDS011;2619;47.868;11.892;2023-11-19T06:11:10;3.20;;;1.10;;
5199;SDS011;2619;47.868;11.892;2023-11-19T06:13:43;3.40;;;0.97;;
5199;SDS011;2619;47.868;11.892;2023-11-19T06:16:09;2.30;;;0.90;;
5199;SDS011;2619;47.868;11.892;2023-11-19T06:18:38;2.67;;;0.67;;
5199;SDS011;2619;47.868;11.892;2023-11-19T06:21:03;9.87;;;6.50;;
5199;SDS011;2619;47.868;11.892;2023-11-19T06:23:29;3.10;;;0.80;;
5199;SDS011;2619;47.868;11.892;2023-11-19T06:25:55;3.50;;;1.00;;
5199;SDS011;2619;47.868;11.892;2023-11-19T06:28:20;2.20;;;0.90;;
5199;SDS011;2619;47.868;11.892;2023-11-19T06:30:46;4.90;;;1.07;;
5199;SDS011;2619;47.868;11.892;2023-11-19T06:33:14;3.03;;;1.20;;
5199;SDS011;2619;47.868;11.892;2023-11-19T06:35:40;2.40;;;0.80;;
5199;SDS011;2619;47.868;11.892;2023-11-19T06:38:06;2.43;;;0.93;;
5199;SDS011;2619;47.868;11.892;2023-11-19T06:40:34;2.40;;;0.80;;
5199;SDS011;2619;47.868;11.892;2023-11-19T06:43:00;2.40;;;0.70;;
5199;SDS011;2619;47.868;11.892;2023-11-19T06:45:27;3.50;;;0.97;;
5199;SDS011;2619;47.868;11.892;2023-11-19T06:47:53;3.00;;;1.20;;
5199;SDS011;2619;47.868;11.892;2023-11-19T06:50:18;2.20;;;0.73;;
5199;SDS011;2619;47.868;11.892;2023-11-19T06:52:44;2.10;;;0.80;;
5199;SDS011;2619;47.868;11.892;2023-11-19T06:55:10;2.90;;;0.83;;
5199;SDS011;2619;47.868;11.892;2023-11-19T06:57:36;5.00;;;0.87;;
5199;SDS011;2619;47.868;11.892;2023-11-19T07:00:02;10.70;;;7.20;;
5199;SDS011;2619;47.868;11.892;2023-11-19T07:02:30;2.60;;;0.73;;
5199;SDS011;2619;47.868;11.892;2023-11-19T07:04:56;2.27;;;0.80;;
5199;SDS011;2619;47.868;11.892;2023-11-19T07:07:22;2.57;;;0.83;;
5199;SDS011;2619;47.868;11.892;2023-11-19T07:09:47;14.03;;;4.57;;
5199;SDS011;2619;47.868;11.892;2023-11-19T07:12:13;4.10;;;0.70;;
5199;SDS011;2619;47.868;11.892;2023-11-19T07:14:39;2.20;;;0.70;;
5199;SDS011;2619;47.868;11.892;2023-11-19T07:17:06;2.20;;;0.80;;
5199;SDS011;2619;47.868;11.892;2023-11-19T07:19:33;2.70;;;0.80;;
5199;SDS011;2619;47.868;11.892;2023-11-19T07:22:01;3.40;;;0.50;;
5199;SDS011;2619;47.868;11.892;2023-11-19T07:24:26;2.07;;;0.47;;
5199;SDS011;2619;47.868;11.892;2023-11-19T07:26:53;7.20;;;0.80;;
5199;SDS011;2619;47.868;11.892;2023-11-19T07:29:19;2.27;;;0.80;;
5199;SDS011;2619;47.868;11.892;2023-11-19T07:31:46;2.30;;;0.60;;
5199;SDS011;2619;47.868;11.892;2023-11-19T07:34:13;3.23;;;0.70;;
5199;SDS011;2619;47.868;11.892;2023-11-19T07:36:39;2.23;;;0.60;;
5199;SDS011;2619;47.868;11.892;2023-11-19T07:39:05;2.63;;;1.13;;
5199;SDS011;2619;47.868;11.892;2023-11-19T07:41:30;2.40;;;0.60;;
5199;SDS011;2619;47.868;11.892;2023-11-19T07:43:56;3.20;;;0.83;;
5199;SDS011;2619;47.868;11.892;2023-11-19T07:46:22;1.80;;;0.40;;
5199;SDS011;2619;47.868;11.892;2023-11-19T07:48:47;1.90;;;0.50;;
5199;SDS011;2619;47.868;11.892;2023-11-19T07:51:13;2.10;;;0.53;;
5199;SDS011;2619;47.868;11.892;2023-11-19T07:53:39;1.90;;;0.47;;
5199;SDS011;2619;47.868;11.892;2023-11-19T07:56:06;3.03;;;0.50;;
5199;SDS011;2619;47.868;11.892;2023-11-19T07:58:32;2.20;;;0.50;;
5199;SDS011;2619;47.868;11.892;2023-11-19T08:00:58;2.00;;;0.40;;
5199;SDS011;2619;47.868;11.892;2023-11-19T08:03:24;2.40;;;0.50;;
5199;SDS011;2619;47.868;11.892;2023-11-19T08:05:50;5.60;;;0.73;;
5199;SDS011;2619;47.868;11.892;2023-11-19T08:08:15;2.10;;;0.60;;
5199;SDS011;2619;47.868;11.892;2023-11-19T08:10:41;2.83;;;0.50;;
5199;SDS011;2619;47.868;11.892;2023-11-19T08:13:09;2.10;;;0.40;;
5199;SDS011;2619;47.868;11.892;2023-11-19T08:15:35;1.80;;;0.40;;
5199;SDS011;2619;47.868;11.892;2023-11-19T08:18:01;2.57;;;0.50;;
5199;SDS011;2619;47.868;11.892;2023-11-19T08:20:27;2.30;;;0.60;;
5199;SDS011;2619;47.868;11.892;2023-11-19T08:22:52;2.50;;;0.40;;
5199;SDS011;2619;47.868;11.892;2023-11-19T08:25:18;1.90;;;0.40;;
5199;SDS011;2619;47.868;11.892;2023-11-19T08:27:43;2.20;;;0.60;;
5199;SDS011;2619;47.868;11.892;2023-11-19T08:30:09;2.50;;;0.50;;
5199;SDS011;2619;47.868;11.892;2023-11-19T08:32:35;1.90;;;0.40;;
5199;SDS011;2619;47.868;11.892;2023-11-19T08:35:01;1.80;;;0.40;;
5199;SDS011;2619;47.868;11.892;2023-11-19T08:37:26;2.00;;;0.60;;
5199;SDS011;2619;47.868;11.892;2023-11-19T08:39:52;2.00;;;0.40;;
5199;SDS011;2619;47.868;11.892;2023-11-19T08:42:18;2.40;;;0.60;;
5199;SDS011;2619;47.868;11.892;2023-11-19T08:44:43;3.23;;;0.70;;
5199;SDS011;2619;47.868;11.892;2023-11-19T08:47:15;1.90;;;0.60;;
5199;SDS011;2619;47.868;11.892;2023-11-19T08:49:42;2.93;;;0.60;;
5199;SDS011;2619;47.868;11.892;2023-11-19T08:52:09;2.33;;;0.70;;
5199;SDS011;2619;47.868;11.892;2023-11-19T08:54:35;2.10;;;0.70;;
5199;SDS011;2619;47.868;11.892;2023-11-19T08:57:02;1.70;;;0.40;;
5199;SDS011;2619;47.868;11.892;2023-11-19T08:59:28;2.00;;;0.40;;
5199;SDS011;2619;47.868;11.892;2023-11-19T09:01:54;1.90;;;0.40;;
5199;SDS011;2619;47.868;11.892;2023-11-19T09:04:20;2.80;;;0.40;;
5199;SDS011;2619;47.868;11.892;2023-11-19T09:06:47;2.40;;;0.70;;
5199;SDS011;2619;47.868;11.892;2023-11-19T09:09:13;5.50;;;0.77;;
5199;SDS011;2619;47.868;11.892;2023-11-19T09:11:39;1.80;;;0.50;;
5199;SDS011;2619;47.868;11.892;2023-11-19T09:14:04;2.00;;;0.60;;
5199;SDS011;2619;47.868;11.892;2023-11-19T09:16:30;2.00;;;0.60;;
5199;SDS011;2619;47.868;11.892;2023-11-19T09:18:57;1.90;;;0.53;;
5199;SDS011;2619;47.868;11.892;2023-11-19T09:21:24;1.80;;;0.40;;
5199;SDS011;2619;47.868;11.892;2023-11-19T09:23:50;1.70;;;0.40;;
5199;SDS011;2619;47.868;11.892;2023-11-19T09:26:15;2.00;;;0.40;;
5199;SDS011;2619;47.868;11.892;2023-11-19T09:28:41;1.87;;;0.70;;
5199;SDS011;2619;47.868;11.892;2023-11-19T09:31:16;2.93;;;0.50;;
5199;SDS011;2619;47.868;11.892;2023-11-19T09:33:43;2.00;;;0.60;;
5199;SDS011;2619;47.868;11.892;2023-11-19T09:36:09;2.17;;;0.53;;
5199;SDS011;2619;47.868;11.892;2023-11-19T09:38:38;2.67;;;0.50;;
5199;SDS011;2619;47.868;11.892;2023-11-19T09:41:09;3.40;;;0.70;;
5199;SDS011;2619;47.868;11.892;2023-11-19T09:43:37;2.23;;;0.50;;
5199;SDS011;2619;47.868;11.892;2023-11-19T09:46:04;2.47;;;0.60;;
5199;SDS011;2619;47.868;11.892;2023-11-19T09:48:35;1.80;;;0.40;;
5199;SDS011;2619;47.868;11.892;2023-11-19T09:51:02;2.20;;;0.40;;
5199;SDS011;2619;47.868;11.892;2023-11-19T09:53:29;1.90;;;0.60;;
5199;SDS011;2619;47.868;11.892;2023-11-19T09:55:55;3.77;;;0.60;;
5199;SDS011;2619;47.868;11.892;2023-11-19T09:58:22;3.33;;;0.90;;
5199;SDS011;2619;47.868;11.892;2023-11-19T10:00:48;2.20;;;0.80;;
5199;SDS011;2619;47.868;11.892;2023-11-19T10:03:14;1.73;;;0.43;;
5199;SDS011;2619;47.868;11.892;2023-11-19T10:05:41;1.90;;;0.50;;
5199;SDS011;2619;47.868;11.892;2023-11-19T10:08:06;3.73;;;0.73;;
5199;SDS011;2619;47.868;11.892;2023-11-19T10:10:33;1.87;;;0.50;;
5199;SDS011;2619;47.868;11.892;2023-11-19T10:12:59;1.63;;;0.50;;
5199;SDS011;2619;47.868;11.892;2023-11-19T10:15:25;2.10;;;0.50;;
5199;SDS011;2619;47.868;11.892;2023-11-19T10:17:52;1.80;;;0.50;;
5199;SDS011;2619;47.868;11.892;2023-11-19T10:20:21;5.80;;;0.67;;
5199;SDS011;2619;47.868;11.892;2023-11-19T10:22:52;1.80;;;0.50;;
5199;SDS011;2619;47.868;11.892;2023-11-19T10:25:26;2.47;;;0.73;;
5199;SDS011;2619;47.868;11.892;2023-11-19T10:27:53;2.40;;;0.73;;
5199;SDS011;2619;47.868;11.892;2023-11-19T10:30:23;2.10;;;0.63;;
5199;SDS011;2619;47.868;11.892;2023-11-19T10:35:56;1.90;;;0.63;;
5199;SDS011;2619;47.868;11.892;2023-11-19T10:38:22;2.00;;;0.70;;
5199;SDS011;2619;47.868;11.892;2023-11-19T10:40:49;2.47;;;1.13;;
5199;SDS011;2619;47.868;11.892;2023-11-19T10:43:21;2.80;;;0.87;;
5199;SDS011;2619;47.868;11.892;2023-11-19T10:45:48;3.57;;;1.67;;
5199;SDS011;2619;47.868;11.892;2023-11-19T10:48:14;1.90;;;0.70;;
5199;SDS011;2619;47.868;11.892;2023-11-19T10:50:40;2.00;;;0.70;;
5199;SDS011;2619;47.868;11.892;2023-11-19T10:53:07;2.10;;;0.63;;
5199;SDS011;2619;47.868;11.892;2023-11-19T10:55:34;2.10;;;0.53;;
5199;SDS011;2619;47.868;11.892;2023-11-19T10:58:03;2.10;;;0.60;;
5199;SDS011;2619;47.868;11.892;2023-11-19T11:00:31;3.50;;;2.07;;
5199;SDS011;2619;47.868;11.892;2023-11-19T11:03:05;2.60;;;0.90;;
5199;SDS011;2619;47.868;11.892;2023-11-19T11:05:36;2.60;;;0.90;;
5199;SDS011;2619;47.868;11.892;2023-11-19T11:08:04;1.70;;;0.40;;
5199;SDS011;2619;47.868;11.892;2023-11-19T11:10:31;2.17;;;0.67;;
5199;SDS011;2619;47.868;11.892;2023-11-19T11:13:04;2.23;;;0.50;;
5199;SDS011;2619;47.868;11.892;2023-11-19T11:15:30;2.77;;;0.70;;
5199;SDS011;2619;47.868;11.892;2023-11-19T11:18:00;2.73;;;0.70;;
5199;SDS011;2619;47.868;11.892;2023-11-19T11:20:33;2.00;;;0.50;;
5199;SDS011;2619;47.868;11.892;2023-11-19T11:29:00;1.77;;;0.50;;
5199;SDS011;2619;47.868;11.892;2023-11-19T11:34:44;5.83;;;0.50;;
5199;SDS011;2619;47.868;11.892;2023-11-19T11:40:04;1.70;;;0.40;;
5199;SDS011;2619;47.868;11.892;2023-11-19T11:42:35;5.90;;;0.40;;
5199;SDS011;2619;47.868;11.892;2023-11-19T11:45:07;4.60;;;0.40;;
5199;SDS011;2619;47.868;11.892;2023-11-19T11:50:09;1.73;;;0.50;;
5199;SDS011;2619;47.868;11.892;2023-11-19T11:56:08;1.60;;;0.40;;
5199;SDS011;2619;47.868;11.892;2023-11-19T11:58:18;1.67;;;0.43;;
5199;SDS011;2619;47.868;11.892;2023-11-19T12:00:51;2.70;;;0.53;;
5199;SDS011;2619;47.868;11.892;2023-11-19T12:03:18;2.13;;;0.40;;
5199;SDS011;2619;47.868;11.892;2023-11-19T12:05:47;2.20;;;0.50;;
5199;SDS011;2619;47.868;11.892;2023-11-19T12:08:13;1.60;;;0.40;;
5199;SDS011;2619;47.868;11.892;2023-11-19T12:10:47;1.57;;;0.43;;
5199;SDS011;2619;47.868;11.892;2023-11-19T12:13:14;2.00;;;0.50;;
5199;SDS011;2619;47.868;11.892;2023-11-19T12:18:22;1.57;;;0.30;;
5199;SDS011;2619;47.868;11.892;2023-11-19T12:20:49;3.93;;;0.40;;
5199;SDS011;2619;47.868;11.892;2023-11-19T12:23:15;1.60;;;0.40;;
5199;SDS011;2619;47.868;11.892;2023-11-19T12:25:41;4.10;;;0.53;;
5199;SDS011;2619;47.868;11.892;2023-11-19T12:28:11;2.27;;;0.40;;
5199;SDS011;2619;47.868;11.892;2023-11-19T12:30:38;2.37;;;0.40;;
5199;SDS011;2619;47.868;11.892;2023-11-19T12:33:13;1.80;;;0.40;;
5199;SDS011;2619;47.868;11.892;2023-11-19T12:35:40;4.03;;;0.40;;
5199;SDS011;2619;47.868;11.892;2023-11-19T12:38:06;2.53;;;0.40;;
5199;SDS011;2619;47.868;11.892;2023-11-19T12:40:31;2.20;;;0.50;;
5199;SDS011;2619;47.868;11.892;2023-11-19T12:42:57;1.80;;;0.43;;
5199;SDS011;2619;47.868;11.892;2023-11-19T12:45:24;2.03;;;0.40;;
5199;SDS011;2619;47.868;11.892;2023-11-19T12:47:50;2.30;;;0.60;;
5199;SDS011;2619;47.868;11.892;2023-11-19T12:50:30;2.03;;;0.40;;
5199;SDS011;2619;47.868;11.892;2023-11-19T12:53:15;1.93;;;0.50;;
5199;SDS011;2619;47.868;11.892;2023-11-19T12:55:41;2.43;;;0.47;;
5199;SDS011;2619;47.868;11.892;2023-11-19T12:58:07;3.20;;;0.80;;
5199;SDS011;2619;47.868;11.892;2023-11-19T13:00:32;1.80;;;0.40;;
5199;SDS011;2619;47.868;11.892;2023-11-19T13:02:58;4.57;;;0.80;;
5199;SDS011;2619;47.868;11.892;2023-11-19T13:05:30;2.50;;;0.50;;
5199;SDS011;2619;47.868;11.892;2023-11-19T13:08:01;3.13;;;0.60;;
5199;SDS011;2619;47.868;11.892;2023-11-19T13:10:28;4.90;;;0.60;;
5199;SDS011;2619;47.868;11.892;2023-11-19T13:13:07;2.00;;;0.50;;
5199;SDS011;2619;47.868;11.892;2023-11-19T13:15:33;1.90;;;0.60;;
5199;SDS011;2619;47.868;11.892;2023-11-19T13:18:00;8.03;;;0.77;;
5199;SDS011;2619;47.868;11.892;2023-11-19T13:20:26;1.90;;;0.50;;
5199;SDS011;2619;47.868;11.892;2023-11-19T13:22:59;2.83;;;0.50;;
5199;SDS011;2619;47.868;11.892;2023-11-19T13:25:26;2.27;;;0.50;;
5199;SDS011;2619;47.868;11.892;2023-11-19T13:27:52;5.13;;;0.70;;
5199;SDS011;2619;47.868;11.892;2023-11-19T13:30:19;5.83;;;1.33;;
5199;SDS011;2619;47.868;11.892;2023-11-19T13:32:45;3.53;;;0.80;;
5199;SDS011;2619;47.868;11.892;2023-11-19T13:35:11;2.17;;;0.40;;
5199;SDS011;2619;47.868;11.892;2023-11-19T13:37:38;2.87;;;0.63;;
5199;SDS011;2619;47.868;11.892;2023-11-19T13:40:04;11.23;;;1.80;;
5199;SDS011;2619;47.868;11.892;2023-11-19T13:42:31;3.00;;;0.60;;
5199;SDS011;2619;47.868;11.892;2023-11-19T13:44:57;2.03;;;0.57;;
5199;SDS011;2619;47.868;11.892;2023-11-19T13:47:22;2.70;;;0.60;;
5199;SDS011;2619;47.868;11.892;2023-11-19T13:49:48;1.60;;;0.40;;
5199;SDS011;2619;47.868;11.892;2023-11-19T13:52:14;9.20;;;0.80;;
5199;SDS011;2619;47.868;11.892;2023-11-19T13:54:40;2.10;;;0.80;;
5199;SDS011;2619;47.868;11.892;2023-11-19T13:57:06;2.00;;;0.60;;
5199;SDS011;2619;47.868;11.892;2023-11-19T13:59:31;1.67;;;0.40;;
5199;SDS011;2619;47.868;11.892;2023-11-19T14:01:57;1.80;;;0.40;;
5199;SDS011;2619;47.868;11.892;2023-11-19T14:04:23;1.67;;;0.40;;
5199;SDS011;2619;47.868;11.892;2023-11-19T14:06:50;1.73;;;0.40;;
5199;SDS011;2619;47.868;11.892;2023-11-19T14:09:17;4.20;;;0.70;;
5199;SDS011;2619;47.868;11.892;2023-11-19T14:11:42;2.70;;;0.50;;
5199;SDS011;2619;47.868;11.892;2023-11-19T14:14:08;4.03;;;0.50;;
5199;SDS011;2619;47.868;11.892;2023-11-19T14:16:34;1.70;;;0.73;;
5199;SDS011;2619;47.868;11.892;2023-11-19T14:19:00;1.97;;;0.47;;
5199;SDS011;2619;47.868;11.892;2023-11-19T14:21:25;1.40;;;0.37;;
5199;SDS011;2619;47.868;11.892;2023-11-19T14:23:51;2.63;;;0.80;;
5199;SDS011;2619;47.868;11.892;2023-11-19T14:26:17;3.23;;;0.73;;
5199;SDS011;2619;47.868;11.892;2023-11-19T14:28:43;1.60;;;0.40;;
5199;SDS011;2619;47.868;11.892;2023-11-19T14:31:09;1.60;;;0.43;;
5199;SDS011;2619;47.868;11.892;2023-11-19T14:33:34;1.73;;;0.43;;
5199;SDS011;2619;47.868;11.892;2023-11-19T14:36:01;2.47;;;0.50;;
5199;SDS011;2619;47.868;11.892;2023-11-19T14:38:27;3.60;;;0.40;;
5199;SDS011;2619;47.868;11.892;2023-11-19T14:40:52;3.17;;;0.53;;
5199;SDS011;2619;47.868;11.892;2023-11-19T14:43:18;1.87;;;0.40;;
5199;SDS011;2619;47.868;11.892;2023-11-19T14:45:43;1.60;;;0.43;;
5199;SDS011;2619;47.868;11.892;2023-11-19T14:48:09;1.50;;;0.40;;
5199;SDS011;2619;47.868;11.892;2023-11-19T14:50:35;2.07;;;0.40;;
5199;SDS011;2619;47.868;11.892;2023-11-19T14:53:00;1.67;;;0.47;;
5199;SDS011;2619;47.868;11.892;2023-11-19T14:55:26;2.60;;;0.60;;
5199;SDS011;2619;47.868;11.892;2023-11-19T14:57:52;1.90;;;0.60;;
5199;SDS011;2619;47.868;11.892;2023-11-19T15:00:18;2.17;;;0.80;;
5199;SDS011;2619;47.868;11.892;2023-11-19T15:02:44;1.50;;;0.40;;
5199;SDS011;2619;47.868;11.892;2023-11-19T15:05:10;1.53;;;0.40;;
5199;SDS011;2619;47.868;11.892;2023-11-19T15:07:39;2.23;;;0.50;;
5199;SDS011;2619;47.868;11.892;2023-11-19T15:10:08;3.63;;;0.60;;
5199;SDS011;2619;47.868;11.892;2023-11-19T15:12:36;2.30;;;0.50;;
5199;SDS011;2619;47.868;11.892;2023-11-19T15:15:09;1.60;;;0.50;;
5199;SDS011;2619;47.868;11.892;2023-11-19T15:17:35;2.63;;;0.57;;
5199;SDS011;2619;47.868;11.892;2023-11-19T15:20:02;2.37;;;0.50;;